Airfield :
LOGIN :

Register | Disclaimer

   EN    FR    IT 

 










Legend :    VFR   Marginal VFR   IFR   Intensive IFR   Very Intensive IFR
Visi :
Ceiling :
>= 8 km
>= 3000ft
5 to 8 km
1000 to 3000 ft
1500m to 5 km
500 to 1000 ft
800 to 1500m
200 to 500 ft
< 800m
< 200 ft
Symbols :   Thunderstorms  Fog  Heavy snow  Heavy precipitations  Wind > 20 kt
SIGMETs :     Misc.  Thunderstorms  Icing  Turbulence  Mountain Waves  Volcanic Ashes






- Airport Elevation : 466 ft


LHPA - Pápa

CURRENT METAR :
  • 200115Z 17004KT CAVOK M02/M04 Q1020 NOSIG RMK BLU

EXPIRED METARs :
  • 200045Z 15004KT CAVOK M03/M05 Q1020 NOSIG RMK BLU
  • 200015Z 20004KT CAVOK M02/M05 Q1020 NOSIG RMK BLU
  • 192345Z 28004KT CAVOK M03/M05 Q1021 NOSIG RMK BLU
  • 192315Z 21004KT CAVOK M03/M06 Q1021 NOSIG RMK BLU
  • 192245Z 18004KT CAVOK 01/M04 Q1020 NOSIG RMK BLU

TAF TAF LHPA
Valid from the 20 at 00:00 until the 21 at 00:00 UTC


192315Z 2000/2024 20004KT CAVOK
BECMG 2005/2008 22008KT 9999 BKN040 BKN083
TEMPO 2008/2012 4000 -SHRA -SHSNRA SCT020 BKN030TCU BKN060
BECMG 2013/2015 30009KT
TEMPO 2013/2016 32016G32KT 1500 SHSN -TSSN SCT020CB BKN030 OVC050



MET'MAP, your aeronautical weather chart ! - Copyright ORBIFLY December 2007 - Disclaimer

ORBIFLY MET'MAP TEAM :

Programming & Development : Alexandra Zaïnal
Concept & original design : Baudouin d'Aumeries
Assistance for programming : Marc-Olivier Méhu
Technical & hardware support : Manuel Goepfert

Contact : metmap@orbifly.com




SOURCES & CREDITS :

   NOAA